Station: Tfs A  

  Atmospheric Gas Attenuation - ITU Rec 676-11   ----------------- dB/100km -----------------
Date Time Temp RH % AH g/m3 Dew Point Wind Direction Speed kph Gust kph Barometer mB Rainfall Since 9am 24GHz 47GHz 76GHz 122GHz 134GHz 241GHz
08/05 12:30 11.8 87 9.16 9.7 4 7 1013.1 0 20.9 27.4 43.1 113.4 108.6 374.1
08/05 12:20 12 84 8.95 9.4 6 7 1013.1 0 20.4 27.0 42.2 110.7 105.5 363.0
08/05 12:10 12.1 81 8.69 9 7 9 1013.1 0 19.9 26.5 41.0 107.7 101.8 350.1
08/05 12:00 12.2 77 8.31 8.3 7 9 1013.1 0 19.0 25.9 39.4 103.4 96.5 331.8
08/05 11:50 12 80 8.53 8.7 11 15 1013.1 0 19.5 26.3 40.4 106.1 99.8 343.0
08/05 11:40 12 80 8.53 8.6 7 9 1013.1 0 19.5 26.3 40.4 106.1 99.8 343.0
08/05 11:30 11.6 85 8.84 9.2 7 11 1013.1 0 20.2 26.9 41.9 110.1 104.5 359.6
08/05 11:20 11.4 79 8.11 8 7 9 1013.1 0 18.7 25.8 39.0 102.3 94.9 325.8
08/05 11:10 11.4 77 7.9 7.6 9 13 1013.1 0 18.2 25.4 38.1 100.0 92.1 316.0
08/05 11:00 11.3 79 8.06 7.9 9 11 1013.1 0 18.6 25.7 38.8 101.9 94.3 323.9
08/05 10:50 11 84 8.41 8.4 9 13 1013.1 0 19.3 26.4 40.4 106.1 99.4 341.7
08/05 10:40 10.8 82 8.11 7.9 9 13 1013.1 0 18.7 26.0 39.3 103.1 95.6 328.3
08/05 10:30 10.8 82 8.11 7.8 9 13 1013.1 0 18.7 26.0 39.3 103.1 95.6 328.3
08/05 10:20 10.6 78 7.61 7 9 13 1013.1 0 17.6 25.2 37.4 97.9 89.1 305.6
08/05 10:10 10.2 87 8.28 8.1 9 13 1013.1 0 19.1 26.4 40.3 105.8 98.7 339.0
08/05 10:00 10.3 87 8.33 8.3 9 11 1013.1 0 19.2 26.5 40.5 106.2 99.2 340.9
08/05 09:50 10.5 82 7.95 7.5 7 11 1013.1 0 18.4 25.8 38.8 101.7 93.8 322.0
08/05 09:40 10.4 83 8 7.6 11 13 1013.1 0 18.5 25.9 39.0 102.4 94.6 324.8
08/05 09:30 10.3 81 7.76 7.2 7 9 1013.1 0 18.0 25.5 38.1 99.9 91.5 313.8
08/05 09:20 10 80 7.52 6.8 9 11 1013.1 0 17.5 25.2 37.3 97.7 88.6 303.8
08/05 09:10 9.8 84 7.8 7.3 11 15 1013.1 0 18.1 25.7 38.5 101.0 92.6 317.7
08/05 09:00 9.7 85 7.84 7.4 11 20 1013.1 31.2 18.2 25.8 38.7 101.6 93.3 320.1
08/05 08:50 9.9 80 7.47 6.7 9 13 1013.1 31 17.3 25.2 37.1 97.3 88.1 301.8
08/05 08:40 9.7 82 7.56 6.8 9 11 1013.1 31 17.6 25.4 37.6 98.5 89.5 306.8
08/05 08:30 9.4 87 7.87 7.4 11 15 1013.1 31 18.2 26.0 39.0 102.3 94.1 322.7
08/05 08:20 9.5 85 7.74 7.1 7 11 1013.1 31 17.9 25.7 38.4 100.7 92.2 316.1
08/05 08:10 9.3 84 7.55 6.8 9 17 1013.1 31 17.5 25.5 37.7 98.9 89.8 307.9
08/05 08:00 9.2 88 7.86 7.4 7 11 1013.1 31 18.2 26.0 39.1 102.4 94.2 323.1
08/05 07:50 9.4 84 7.6 6.8 7 15 1013.1 31 17.6 25.5 37.9 99.3 90.4 309.9
08/05 07:40 9.3 85 7.64 6.9 7 13 1013.1 31 17.7 25.6 38.1 99.9 91.1 312.2
08/05 07:30 9.2 82 7.32 6.3 9 15 1013.1 31 17.1 25.1 36.8 96.5 86.9 297.5
08/05 07:20 9.1 85 7.54 6.8 11 15 1013.1 31 17.5 25.5 37.8 99.0 89.9 308.2
08/05 07:10 9.1 89 7.9 7.4 9 15 1013.1 31 18.3 26.1 39.3 103.0 94.8 325.4
08/05 07:00 9.1 88 7.81 7.2 7 13 1013.1 31 18.1 26.0 38.9 102.0 93.6 321.1
08/05 06:50 9 84 7.41 6.4 6 9 1013.1 31 17.3 25.3 37.3 97.7 88.3 302.5
08/05 06:40 9.1 89 7.9 7.4 6 6 1013.1 31 18.3 26.1 39.3 103.0 94.8 325.4
08/05 06:30 8.8 90 7.84 7.2 6 9 1013.1 31 18.2 26.1 39.2 102.7 94.4 323.8
08/05 06:20 8.7 95 8.22 7.9 4 6 1013.1 31 19.0 26.8 40.8 107.1 99.8 342.6
08/05 06:10 8.9 92 8.06 7.7 4 6 1013.1 30.8 18.7 26.4 40.0 105.1 97.3 334.0
08/05 06:00 8.7 92 7.96 7.5 4 7 1013.1 30.8 18.5 26.3 39.7 104.2 96.2 330.0
08/05 05:50 8.9 93 8.15 7.8 4 6 1013.1 30.8 18.9 26.6 40.4 106.1 98.5 338.3
08/05 05:40 8.8 90 7.84 7.3 6 9 1013.1 30.8 18.2 26.1 39.2 102.7 94.4 323.8
08/05 05:30 8.6 96 8.25 8 4 6 1013.1 30.8 19.1 26.9 41.0 107.6 100.3 344.6
08/05 05:20 8.9 94 8.24 8 4 6 1013.1 30.8 19.1 26.7 40.8 107.1 99.8 342.7
08/05 05:10 9.3 83 7.46 6.6 4 7 1013.1 30.6 17.4 25.3 37.4 97.9 88.6 303.7
08/05 05:00 9.3 83 7.46 6.6 6 7 1013.1 30.6 17.4 25.3 37.4 97.9 88.6 303.7
08/05 04:50 9.1 90 7.99 7.5 6 11 1013.1 30.6 18.5 26.3 39.7 104.0 96.1 329.7
08/05 04:40 9.2 84 7.5 6.6 9 13 1013.1 30.6 17.4 25.4 37.6 98.5 89.3 305.9
08/05 04:30 9.3 87 7.82 7.3 7 13 1013.1 30.6 18.1 25.9 38.8 101.9 93.5 320.7
08/05 04:20 9.3 91 8.18 7.9 4 9 1013.1 30.6 18.9 26.5 40.3 105.9 98.5 338.1
08/05 04:10 9.6 84 7.7 7 6 7 1013.1 30.6 17.9 25.6 38.2 100.2 91.5 313.8
08/05 04:00 9.4 84 7.6 6.8 6 9 1013.1 30.6 17.6 25.5 37.9 99.3 90.4 309.9
08/05 03:50 9.3 84 7.55 6.7 6 9 1013.1 30.6 17.5 25.5 37.7 98.9 89.8 307.9
08/05 03:40 9.4 89 8.05 7.7 6 13 1013.1 30.6 18.6 26.3 39.8 104.3 96.5 331.4
08/05 03:30 9.5 92 8.38 8.2 6 15 1013.1 30.6 19.3 26.8 41.1 107.9 101.0 346.9
08/05 03:20 9.7 85 7.84 7.4 6 9 1013.1 30.4 18.2 25.8 38.7 101.6 93.3 320.1
08/05 03:10 9.9 85 7.94 7.6 7 13 1013.1 30.4 18.4 25.9 39.0 102.4 94.4 324.0
08/05 03:00 9.6 84 7.7 7.1 7 11 1013.1 30.4 17.9 25.6 38.2 100.2 91.5 313.8
08/05 02:50 9.9 83 7.75 7.1 11 15 1013.1 30.4 17.9 25.6 38.3 100.3 91.8 315.0
08/05 02:40 9.9 83 7.75 7.2 9 15 1013.1 30.4 17.9 25.6 38.3 100.3 91.8 315.0
08/05 02:30 9.5 87 7.92 7.4 6 9 1013.1 30.4 18.3 26.0 39.2 102.7 94.6 324.7
08/05 02:20 9.3 90 8.09 7.7 6 9 1013.1 30.4 18.7 26.4 40.0 104.9 97.2 333.7
08/05 02:10 9.6 90 8.25 8.1 6 7 1013.1 30.4 19.0 26.6 40.5 106.3 99.0 340.1
08/05 02:00 9.9 82 7.66 7 7 13 1013.1 30.4 17.8 25.5 37.9 99.3 90.6 310.7
08/05 01:50 10 85 7.99 7.6 6 9 1013.1 30.2 18.5 26.0 39.2 102.8 95.0 326.0
08/05 01:40 10.1 86 8.13 7.9 9 15 1013.1 30.2 18.8 26.2 39.7 104.2 96.7 332.2
08/05 01:30 9.9 88 8.22 8.1 6 9 1013.1 30.2 19.0 26.4 40.2 105.5 98.2 337.4
08/05 01:20 10 94 8.83 9.1 4 7 1013.1 30.2 20.3 27.4 42.7 112.2 106.6 366.6
08/05 01:10 10.2 91 8.66 8.8 6 7 1013.1 30.2 19.9 27.1 41.9 110.0 103.9 357.3
08/05 01:00 10.4 93 8.97 9.3 6 11 1013.1 30.2 20.6 27.5 43.1 113.3 108.0 371.6
08/05 00:50 10.3 93 8.91 9.2 4 7 1013.1 30 20.4 27.5 42.9 112.7 107.3 369.1
08/05 00:40 10.5 92 8.92 9.3 6 7 1013.1 30 20.4 27.4 42.8 112.5 107.1 368.6
08/05 00:30 10.6 92 8.98 9.4 7 11 1013.1 29.8 20.6 27.5 43.0 113.1 107.8 371.1
08/05 00:20 10.7 91 8.94 9.3 9 15 1013.1 29.2 20.5 27.4 42.8 112.5 107.1 368.7
08/05 00:10 10.7 90 8.84 9.2 7 11 1013.1 28.4 20.3 27.2 42.4 111.3 105.7 363.8
08/05 00:00 10.7 92 9.04 9.4 6 15 1013.1 26.6 20.7 27.6 43.2 113.6 108.5 373.5
07/05 23:50 10.9 90 8.95 9.4 9 17 1013.1 26 20.5 27.3 42.8 112.3 107.0 368.2
07/05 23:40 11.2 88 8.92 9.3 9 13 1013.1 25.8 20.4 27.2 42.5 111.5 106.2 365.3
07/05 23:30 11.4 85 8.73 9 11 15 1013.1 25.6 20.0 26.8 41.6 109.1 103.3 355.2
07/05 23:20 11.3 87 8.88 9.2 9 13 1013.1 25.6 20.3 27.1 42.2 110.9 105.5 362.9
07/05 23:10 11.3 86 8.77 9.1 11 17 1013.1 25.6 20.1 26.9 41.8 109.7 104.0 357.6
07/05 23:00 11.2 89 9.02 9.5 7 13 1013.1 25.4 20.6 27.4 42.9 112.7 107.6 370.2
07/05 22:50 11.4 90 9.24 9.8 9 20 1013.1 25.2 21.1 27.7 43.7 114.9 110.3 379.9
07/05 22:40 11.3 89 9.08 9.5 7 15 1013.1 24.8 20.7 27.4 43.1 113.2 108.2 372.6
07/05 22:30 11.3 92 9.39 10.1 7 11 1013.1 24.6 21.4 28.0 44.4 116.7 112.6 387.8
07/05 22:20 11.3 90 9.18 9.7 7 11 1013.1 24.4 21.0 27.6 43.5 114.3 109.6 377.5
07/05 22:10 11.2 92 9.33 9.9 7 11 1013.1 24 21.3 27.9 44.2 116.2 111.9 385.3
07/05 22:00 11 91 9.11 9.6 7 11 1013.1 23.8 20.8 27.6 43.4 114.0 109.1 375.5
07/05 21:50 10.7 95 9.33 9.9 6 9 1013.1 23.4 21.3 28.1 44.5 116.9 112.6 387.8
07/05 21:40 10.3 97 9.29 9.9 4 9 1013.1 22.8 21.3 28.1 44.5 117.1 112.6 387.9
07/05 21:30 10.2 97 9.23 9.8 4 6 1013.1 21.8 21.1 28.0 44.3 116.5 111.9 385.4
07/05 21:20 10.5 95 9.22 9.7 6 7 1013.1 20.8 21.1 27.9 44.1 116.0 111.4 383.4
07/05 21:10 10.7 92 9.04 9.5 7 13 1013.1 20.2 20.7 27.6 43.2 113.6 108.5 373.5
07/05 21:00 10.7 92 9.04 9.4 9 13 1013.1 19.6 20.7 27.6 43.2 113.6 108.5 373.5
07/05 20:50 10.2 94 8.95 9.3 9 13 1013.1 19.4 20.5 27.6 43.1 113.3 108.0 371.5
07/05 20:40 10 95 8.93 9.2 9 13 1013.1 18.8 20.5 27.6 43.2 113.4 108.0 371.5
07/05 20:30 9.7 96 8.85 9.1 7 11 1013.1 18 20.3 27.5 43.0 112.9 107.3 369.0
07/05 20:20 9.6 96 8.8 9 6 9 1013.1 17.8 20.2 27.5 42.8 112.5 106.7 367.0
07/05 20:10 9.1 98 8.7 8.8 6 9 1013.1 17.2 20.0 27.5 42.7 112.1 106.0 364.4
07/05 20:00 8.9 98 8.59 8.6 9 9 1013.1 17 19.8 27.3 42.3 111.1 104.7 359.9

Last Refresh: 08-May-2026 12:10:19

Bureau of Meteorology